Date,TemperatureHighF,TemperatureAvgF,TemperatureLowF,DewpointHighF,DewpointAvgF,DewpointLowF,HumidityHigh,HumidityAvg,HumidityLow,PressureMaxIn,PressureMinIn,WindSpeedMaxMPH,WindSpeedAvgMPH,GustSpeedMaxMPH,PrecipitationSumIn
2013-1-1,30,20,10,18,11,2,86,70,53,30.26,30.12,15,4,15,0.06
2013-1-2,37,23,9,24,15,3,86,72,56,30.21,30.07,10,3,10,0.07
2013-1-3,43,29,19,29,22,15,85,76,53,30.38,30.20,10,3,10,0.00
2013-1-4,44,30,18,30,22,13,86,73,56,30.34,30.16,12,3,12,0.01
2013-1-5,48,37,30,35,29,22,82,72,56,30.16,29.99,17,6,17,0.00
2013-1-6,48,34,21,26,22,15,79,62,38,30.34,30.15,11,4,11,0.00
2013-1-7,51,39,29,29,25,20,73,58,42,30.19,29.96,21,7,21,0.00
2013-1-8,56,43,35,36,31,26,79,63,45,30.15,29.89,19,7,19,0.00
2013-1-9,60,41,26,40,30,20,82,66,44,30.37,30.15,10,2,10,0.00
2013-1-10,45,43,39,43,38,30,94,86,62,30.27,29.69,14,5,14,0.34
2013-1-11,58,52,45,48,45,24,95,79,33,29.72,29.50,24,9,24,0.00
2013-1-12,49,28,20,34,18,10,81,65,45,30.06,29.72,20,7,20,0.00
2013-1-13,32,21,14,14,9,6,76,60,40,30.30,30.03,16,5,16,0.00
2013-1-14,38,23,10,17,10,2,76,59,39,30.44,30.30,12,1,12,0.00
2013-1-15,41,27,15,23,13,6,75,57,38,30.34,30.11,6,1,6,0.00
2013-1-16,54,35,19,33,22,10,75,61,43,30.16,29.97,11,4,11,0.00
2013-1-17,55,40,28,36,30,24,86,67,46,30.43,30.16,10,2,10,0.00
2013-1-18,61,45,32,34,31,26,78,59,35,30.32,29.96,31,10,31,0.00
2013-1-19,71,49,36,36,30,26,77,51,25,30.21,29.91,16,6,16,0.00
2013-1-20,42,30,21,28,14,7,72,52,35,30.36,30.21,16,5,16,0.00
2013-1-21,28,20,16,13,8,4,72,60,48,30.39,30.30,14,3,14,0.00
2013-1-22,38,24,15,15,9,5,66,55,38,30.32,30.18,12,4,12,0.00
2013-1-23,55,29,12,32,16,5,79,60,37,30.37,30.11,20,4,20,0.00
2013-1-24,29,22,12,15,8,3,72,55,37,30.41,30.10,17,7,17,0.00
2013-1-25,49,32,16,24,17,9,76,57,36,30.20,30.09,10,2,10,0.00
2013-1-26,59,41,26,30,25,19,84,56,28,30.21,30.00,15,4,15,0.00
2013-1-27,61,52,42,53,48,38,92,87,74,29.86,29.68,20,9,20,0.00
2013-1-28,75,61,47,61,52,44,89,75,49,29.80,29.59,22,8,22,0.00
2013-1-29,67,44,34,61,41,32,93,89,76,29.68,29.46,22,7,22,0.10
2013-1-30,34,26,16,32,22,11,93,82,68,29.93,29.50,23,8,23,0.01
2013-1-31,22,17,6,18,10,0,89,73,53,30.41,29.89,22,5,22,0.00
2013-2-1,30,18,4,19,11,-1,84,73,61,30.41,30.08,14,4,14,0.01
2013-2-2,52,38,25,38,28,17,82,69,51,30.16,30.05,16,5,16,0.05
2013-2-3,53,41,28,30,27,20,84,59,36,30.24,29.78,16,6,16,0.00
2013-2-4,45,36,21,32,26,16,87,67,53,29.95,29.74,19,5,19,0.00
2013-2-5,61,38,20,35,26,16,89,66,34,30.05,29.85,14,3,14,0.00
2013-2-6,64,47,28,48,36,21,83,66,43,30.05,29.80,15,6,15,0.00
2013-2-7,53,45,32,46,39,27,94,79,59,30.18,29.81,17,6,17,0.46
2013-2-8,47,35,29,34,28,25,89,78,56,30.29,30.13,12,4,12,0.00
2013-2-9,54,40,30,41,34,27,90,79,58,30.14,29.66,18,7,18,0.00
2013-2-10,51,44,37,45,35,25,95,72,51,29.90,29.42,28,12,28,0.07
2013-2-11,48,36,27,28,24,18,76,62,37,30.13,29.90,17,6,17,0.00
2013-2-12,46,32,21,31,23,15,85,70,46,30.14,29.91,5,1,5,0.00
2013-2-13,58,38,23,31,24,18,85,61,30,29.92,29.77,20,4,20,0.00
2013-2-14,50,40,27,35,27,20,81,61,38,30.16,29.80,17,5,17,0.00
2013-2-15,40,30,19,28,18,11,89,63,38,30.35,30.16,21,6,21,0.00
2013-2-16,40,31,20,28,22,16,87,69,45,30.27,29.99,13,5,13,0.03
2013-2-17,62,43,24,37,28,16,78,57,37,29.99,29.59,19,6,19,0.01
2013-2-18,56,43,24,46,30,16,73,61,47,30.05,29.46,24,10,24,0.00
2013-2-19,40,28,20,18,10,2,79,51,22,30.29,30.05,20,5,20,0.00
2013-2-20,29,23,16,14,9,4,63,56,46,30.31,30.09,16,6,16,0.00
2013-2-21,27,24,20,25,20,14,92,85,63,30.12,29.70,20,6,20,0.00
2013-2-22,31,21,13,22,16,7,91,80,62,30.03,29.75,0,0,0,0.24
2013-2-23,42,19,2,27,13,-2,86,77,51,30.03,29.88,9,2,9,0.02
2013-2-24,45,31,13,30,22,10,88,73,53,29.96,29.83,12,4,12,0.00
2013-2-25,37,34,30,32,28,24,93,79,68,29.91,29.67,21,9,21,0.04
2013-2-26,35,33,31,31,30,29,94,91,84,29.84,29.62,22,9,22,0.11
2013-2-27,42,33,28,30,27,25,93,79,59,30.04,29.82,19,8,19,0.39
2013-2-28,34,32,30,27,26,24,83,78,72,30.17,30.03,16,6,16,0.01
2013-3-1,32,28,26,24,21,19,79,73,65,30.27,30.15,16,6,16,0.01
2013-3-2,44,30,24,26,20,17,77,69,48,30.31,30.10,16,4,16,0.00
2013-3-3,46,36,26,32,27,20,81,70,56,30.10,29.65,12,6,12,0.00
2013-3-4,53,42,35,38,33,29,82,71,57,29.95,29.60,19,6,19,0.00
2013-3-5,40,33,27,32,21,17,84,62,48,30.32,29.95,27,10,27,0.00
2013-3-6,46,30,19,28,21,14,83,70,46,30.38,30.20,12,4,12,0.00
2013-3-7,55,38,25,37,28,20,83,68,48,30.21,30.04,14,6,14,0.00
2013-3-8,64,50,36,49,40,29,78,68,51,30.12,29.88,19,8,19,0.00
2013-3-9,55,52,47,54,47,41,95,85,64,29.88,29.54,20,6,20,1.29
2013-3-10,50,36,27,49,34,22,95,91,83,29.90,29.51,23,8,23,0.05
2013-3-11,43,30,23,25,21,18,84,72,40,29.97,29.85,18,7,18,0.00
2013-3-12,49,38,29,31,25,20,85,62,37,30.30,29.96,25,7,25,0.00
2013-3-13,55,34,19,28,22,14,87,65,32,30.43,30.23,10,2,10,0.00
2013-3-14,71,50,31,44,34,24,76,58,34,30.23,30.00,16,4,16,0.00
2013-3-15,86,58,34,49,39,29,86,56,20,30.04,29.62,17,5,17,0.00
2013-3-16,59,43,35,44,35,28,87,74,57,30.01,29.69,27,12,27,0.00
2013-3-17,39,35,32,34,30,27,93,85,74,30.02,29.71,19,8,20,0.11
2013-3-18,56,43,34,38,29,18,93,63,28,30.02,29.71,24,7,24,0.00
2013-3-19,42,34,24,38,27,15,92,77,53,30.21,30.01,8,2,8,0.21
2013-3-20,43,33,24,33,18,12,92,56,31,30.36,30.06,27,6,27,0.01
2013-3-21,35,30,24,27,21,13,92,71,54,30.06,29.84,18,7,18,0.00
2013-3-22,35,32,29,32,29,27,93,91,87,29.96,29.88,10,4,10,0.03
2013-3-23,38,33,30,32,30,28,94,88,73,29.99,29.83,16,6,16,0.02
2013-3-24,32,29,24,29,24,17,95,84,70,30.06,29.83,17,8,17,0.09
2013-3-25,36,29,23,26,22,16,85,75,64,30.30,30.05,20,7,20,0.11
2013-3-26,39,29,15,27,20,12,87,71,55,30.37,30.23,8,3,8,0.16
2013-3-27,52,39,26,37,29,20,80,68,52,30.24,30.11,15,5,15,0.00
2013-3-28,67,49,30,44,36,26,88,64,39,30.16,30.06,10,3,10,0.00
2013-3-29,71,57,42,51,43,37,85,64,35,30.16,30.02,15,4,15,0.04
2013-3-30,74,60,51,57,51,43,92,72,46,30.02,29.82,12,4,12,0.13
2013-3-31,65,55,42,48,40,30,88,60,31,29.96,29.90,19,5,19,0.00
2013-4-1,49,42,34,35,24,17,80,52,32,30.25,29.95,28,10,28,0.00
2013-4-2,55,40,26,29,23,16,74,52,32,30.28,30.18,12,4,12,0.00
2013-4-3,52,41,28,30,27,20,79,58,40,30.30,30.18,13,3,13,0.00
2013-4-4,65,46,28,39,31,21,86,59,32,30.19,30.01,12,2,12,0.00
2013-4-5,73,54,32,49,39,28,91,60,34,30.13,29.78,21,6,21,0.00
2013-4-6,77,63,49,53,45,38,72,54,31,29.79,29.65,24,10,24,0.00
2013-4-7,78,58,42,58,48,38,91,71,39,29.82,29.61,21,5,21,0.03
2013-4-8,78,64,54,66,58,51,94,82,64,29.68,29.62,15,5,15,0.00
2013-4-9,76,64,43,65,58,39,90,81,66,29.81,29.56,20,7,20,0.01
2013-4-10,43,39,35,41,36,33,94,92,88,29.92,29.69,19,8,19,0.76
2013-4-11,45,38,33,33,30,27,93,74,56,29.82,29.68,22,9,22,0.00
2013-4-12,55,42,31,37,31,26,84,66,46,29.99,29.75,19,7,19,0.00
2013-4-13,69,52,31,51,40,28,91,68,45,30.01,29.62,15,4,15,0.00
2013-4-14,72,61,54,55,47,32,75,59,39,29.72,29.44,26,11,26,0.00
2013-4-15,54,48,43,42,34,29,88,59,43,29.96,29.70,19,6,19,0.06
2013-4-16,48,44,41,37,33,31,77,65,53,30.10,29.95,20,10,20,0.01
2013-4-17,49,46,44,47,43,37,95,89,74,30.03,29.59,17,6,17,0.74
2013-4-18,44,39,36,42,34,26,94,83,69,29.93,29.56,25,10,25,0.15
2013-4-19,55,42,32,34,28,24,82,60,36,30.06,29.89,23,9,23,0.00
2013-4-20,60,46,27,39,32,22,86,61,44,30.18,30.04,17,6,17,0.00
2013-4-21,72,57,43,53,43,35,78,61,45,30.14,30.03,21,7,21,0.00
2013-4-22,65,53,40,54,45,37,92,75,53,30.07,29.86,17,5,17,0.10
2013-4-23,40,36,33,37,32,30,92,86,72,30.16,30.00,26,9,26,0.49
2013-4-24,60,43,26,38,30,22,88,63,36,30.22,30.11,14,4,14,0.00
2013-4-25,72,54,30,49,39,26,90,60,33,30.25,30.07,15,5,15,0.00
2013-4-26,62,51,47,54,47,37,94,86,65,30.16,30.07,19,6,19,0.35
2013-4-27,61,52,46,52,48,43,94,87,70,30.14,29.97,10,4,10,0.13
2013-4-28,79,67,44,64,57,42,95,71,51,29.95,29.72,14,7,14,0.00
2013-4-29,87,71,50,70,60,48,94,71,46,29.77,29.57,19,7,19,0.00
2013-4-30,86,74,63,67,59,54,76,61,47,29.76,29.59,24,11,24,0.00
2013-5-1,77,60,41,60,49,36,84,67,51,30.19,29.75,30,9,30,0.00
2013-5-2,42,38,34,37,33,30,92,83,66,30.39,30.18,28,11,28,0.86
2013-5-3,51,42,36,36,33,29,88,69,49,30.29,29.90,23,8,23,0.04
2013-5-4,49,42,36,44,39,34,93,89,79,30.02,29.82,19,8,19,0.17
2013-5-5,56,49,44,49,45,42,94,87,75,30.10,30.01,12,5,12,0.01
2013-5-6,72,58,48,57,51,44,92,78,56,30.08,29.98,12,4,12,0.00
2013-5-7,79,62,41,63,52,39,95,72,45,30.05,29.92,10,2,10,0.00
2013-5-8,77,65,56,66,59,50,93,80,60,29.96,29.83,17,5,17,0.27
2013-5-9,75,65,56,63,58,54,94,79,59,29.93,29.81,12,3,12,0.04
2013-5-10,58,56,54,56,54,52,92,91,89,29.94,29.91,8,2,8,0.00
2013-5-13,82,71,46,60,54,41,83,57,40,30.08,29.89,14,5,14,0.00
2013-5-14,93,77,60,60,54,49,81,50,25,29.89,29.75,23,8,23,0.00
2013-5-15,90,76,64,69,61,54,89,62,45,29.86,29.77,17,7,17,0.00
2013-5-16,85,72,59,68,62,56,93,72,48,29.86,29.76,10,3,10,0.00
2013-5-17,83,67,59,64,60,56,92,78,52,29.88,29.81,6,2,6,0.00
2013-5-18,86,74,60,75,67,56,90,79,67,29.88,29.67,16,4,16,0.00
2013-5-19,84,69,59,73,63,55,93,82,58,29.82,29.49,26,6,26,0.59
2013-5-20,84,71,56,70,59,53,93,69,40,29.72,29.59,11,4,11,0.00
2013-5-21,76,66,54,58,53,48,84,63,45,29.77,29.66,16,4,16,0.00
2013-5-22,71,61,53,55,51,48,84,69,53,29.93,29.72,14,4,14,0.00
2013-5-23,72,60,51,58,52,45,89,74,59,30.17,29.93,14,4,14,0.00
2013-5-24,78,64,48,59,53,46,92,68,46,30.24,30.05,16,4,16,0.00
2013-5-25,85,74,63,69,62,54,85,69,51,30.11,29.94,15,6,15,0.00
2013-5-26,88,76,67,72,68,63,90,76,57,30.00,29.83,15,7,15,0.00
2013-5-27,82,72,62,74,66,61,95,83,70,29.87,29.60,16,7,16,2.24
2013-5-28,85,76,70,76,70,66,88,80,72,29.75,29.61,14,6,14,0.00
2013-5-29,84,75,67,73,67,62,84,77,67,29.74,29.56,19,8,19,0.01
2013-5-30,85,67,62,71,63,59,94,86,59,29.70,29.52,20,4,20,0.71
2013-5-31,92,71,61,75,66,58,94,85,57,29.72,29.60,11,3,11,1.01
2013-6-1,71,66,59,66,55,49,93,69,57,29.97,29.67,18,7,18,0.00
2013-6-2,76,61,50,54,50,46,86,69,45,30.08,29.97,10,4,11,0.00
2013-6-3,78,64,48,62,54,44,90,70,52,30.02,29.82,12,4,12,0.00
2013-6-4,82,70,63,71,63,57,90,78,60,29.93,29.80,10,4,10,0.00
2013-6-5,71,65,59,66,61,56,93,88,75,29.96,29.88,13,3,13,0.31
2013-6-6,80,67,54,58,55,51,94,68,44,29.96,29.88,11,3,11,0.00
2013-6-7,83,67,54,60,54,50,91,66,39,29.99,29.87,11,3,11,0.00
2013-6-8,84,69,54,67,58,50,92,71,50,29.90,29.70,16,6,16,0.70
2013-6-9,83,72,61,65,58,52,94,67,35,29.83,29.74,19,5,19,0.17
2013-6-10,92,75,55,70,63,53,94,68,45,29.87,29.76,9,2,9,0.00
2013-6-11,97,82,69,73,68,63,91,65,35,29.85,29.73,18,6,18,0.00
2013-6-12,97,85,74,76,70,60,82,62,43,29.93,29.71,18,7,18,0.00
2013-6-13,90,75,59,69,61,53,83,63,46,30.04,29.92,17,4,17,0.00
2013-6-14,96,81,64,78,70,59,90,72,52,29.97,29.80,14,5,14,0.00
2013-6-15,92,78,68,77,71,65,91,78,49,29.95,29.83,22,3,22,0.70
2013-6-16,90,76,66,76,70,64,94,82,62,29.94,29.86,10,2,10,0.00
2013-6-17,95,75,68,74,69,64,94,82,48,29.98,29.85,10,3,10,0.29
2013-6-18,90,74,63,77,66,60,94,78,50,30.02,29.94,20,3,20,0.07
2013-6-19,92,76,63,74,66,60,93,73,42,30.00,29.89,11,3,11,0.00
2013-6-20,92,80,68,79,71,63,88,75,60,29.95,29.82,16,6,16,0.00
2013-6-21,93,83,75,79,73,68,87,74,54,29.92,29.83,18,6,18,0.00
2013-6-22,94,84,73,78,71,67,83,67,52,29.94,29.80,20,6,20,0.00
2013-6-23,94,81,76,78,72,69,84,73,52,29.91,29.71,21,6,21,0.03
2013-6-24,93,83,75,76,71,68,82,68,53,29.90,29.76,17,7,17,0.00
2013-6-25,90,81,73,78,72,68,92,75,61,29.85,29.67,20,7,20,0.12
2013-6-26,107,86,72,79,71,66,89,64,31,29.87,29.69,12,4,12,0.00
2013-6-27,94,79,72,80,72,66,92,78,60,29.98,29.79,15,3,15,0.41
2013-6-28,92,79,68,74,65,56,93,66,35,29.95,29.86,13,4,13,0.00
2013-6-29,85,76,66,65,58,52,76,56,35,29.89,29.81,19,7,19,0.00
2013-6-30,83,73,61,61,57,54,79,59,42,30.02,29.89,15,5,15,0.00
2013-7-1,86,72,58,62,55,50,83,58,34,30.10,30.01,17,4,17,0.00
2013-7-2,91,72,58,62,57,51,86,60,33,30.11,30.01,12,2,12,0.00
2013-7-3,90,72,56,68,58,51,88,64,33,30.06,29.94,12,2,12,0.09
2013-7-4,94,76,58,67,60,53,87,60,36,30.01,29.90,9,2,9,0.00
2013-7-5,92,79,63,70,63,57,82,59,38,29.95,29.84,11,4,13,0.00
2013-7-6,89,77,68,70,65,61,80,67,53,29.91,29.84,12,5,12,0.00
2013-7-7,96,82,71,76,69,64,82,64,48,29.93,29.86,17,6,17,0.03
2013-7-8,99,86,74,78,70,66,85,60,41,29.99,29.91,15,5,15,0.01
2013-7-9,104,89,78,80,72,68,78,60,39,29.98,29.80,17,6,17,0.00
2013-7-10,96,84,72,75,67,60,78,58,38,30.01,29.83,18,5,18,0.00
2013-7-11,95,80,66,69,63,59,83,59,37,30.07,29.93,12,4,12,0.00
2013-7-12,96,82,69,74,67,58,76,61,48,29.99,29.90,10,4,10,0.00
2013-7-13,93,82,72,76,68,60,68,62,52,29.98,29.88,8,3,8,0.00
2013-7-14,92,80,68,70,64,58,90,60,38,30.07,29.93,15,4,15,0.05
2013-7-15,93,80,64,72,66,59,86,63,43,30.14,30.05,15,3,15,0.00
2013-7-16,100,83,68,74,68,64,89,64,38,30.22,30.14,10,2,10,0.00
2013-7-17,99,83,68,76,69,64,89,64,39,30.28,30.14,11,2,11,0.00
2013-7-18,98,84,67,74,68,63,87,60,36,30.16,29.95,16,3,16,0.00
2013-7-19,102,86,71,73,68,64,91,59,34,29.98,29.82,14,4,14,0.57
2013-7-20,91,77,70,76,71,67,92,84,53,29.90,29.81,17,3,17,0.10
2013-7-21,96,78,69,76,71,66,93,79,51,29.90,29.77,9,2,9,0.00
2013-7-22,100,82,69,80,72,66,93,73,43,29.82,29.75,12,3,12,0.00
2013-7-23,89,77,70,75,70,65,93,79,55,29.93,29.78,14,4,14,0.00
2013-7-24,88,76,65,65,61,58,84,62,39,30.03,29.90,16,4,16,0.00
2013-7-25,84,74,64,72,66,59,91,79,59,30.06,29.97,6,2,6,0.11
2013-7-26,90,76,67,73,65,54,93,71,42,30.04,29.95,22,4,22,0.04
2013-7-27,76,66,59,64,58,53,89,74,51,30.09,29.96,11,2,11,0.01
2013-7-28,80,67,59,62,58,56,92,75,49,30.03,29.98,7,1,7,0.02
2013-7-29,70,66,62,69,64,59,95,93,87,30.03,29.90,14,4,14,1.22
2013-7-30,82,74,68,74,70,67,96,90,73,30.05,29.93,10,2,10,0.00
2013-7-31,90,76,66,74,68,64,95,78,54,30.10,30.01,14,2,14,0.00
2013-8-1,91,78,64,76,68,61,93,74,53,30.08,29.90,8,2,8,0.00
2013-8-2,90,76,64,80,71,61,93,84,68,29.98,29.81,18,4,18,0.65
2013-8-3,85,77,72,76,71,68,92,83,68,30.08,29.88,12,4,12,0.00
2013-8-4,79,72,67,74,69,65,94,90,79,30.10,29.98,10,3,10,0.35
2013-8-5,85,77,69,76,72,67,94,86,73,30.01,29.80,8,2,8,0.00
2013-8-6,90,80,70,80,74,68,95,84,67,29.85,29.75,10,2,10,0.39
2013-8-7,90,79,70,80,73,65,95,82,59,29.93,29.75,13,2,13,0.79
2013-8-8,75,71,68,70,66,64,90,86,82,29.98,29.85,12,3,12,0.05
2013-8-9,80,72,63,70,66,60,90,82,67,30.09,29.96,7,2,7,0.00
2013-8-10,86,73,61,72,65,59,93,76,52,30.16,30.04,9,2,9,0.00
2013-8-11,89,75,60,75,67,58,91,77,58,30.10,29.97,8,2,8,0.00
2013-8-12,87,75,66,75,68,63,94,80,62,30.01,29.93,22,3,22,0.87
2013-8-13,82,73,64,67,64,60,89,75,51,30.09,29.98,12,3,12,0.00
2013-8-14,83,71,60,70,63,56,90,76,56,30.15,30.03,7,2,7,0.00
2013-8-15,75,68,63,67,61,57,88,80,66,30.07,29.96,14,4,14,0.07
2013-8-16,80,70,62,66,60,57,83,73,54,30.11,30.01,11,3,11,0.00
2013-8-17,80,67,54,66,58,51,90,73,51,30.16,30.06,12,2,12,0.00
2013-8-18,83,69,54,69,60,51,90,75,58,30.13,30.01,9,2,9,0.00
2013-8-19,86,74,61,72,65,57,88,76,60,30.07,29.95,10,3,10,0.00
2013-8-20,89,77,67,75,68,63,88,75,56,30.02,29.94,12,4,12,0.00
2013-8-21,91,78,68,76,69,63,87,74,54,30.03,29.95,10,4,10,0.00
2013-8-22,92,78,67,78,70,63,88,78,57,30.07,29.97,6,2,6,0.00
2013-8-23,92,80,67,78,70,63,88,73,54,30.05,29.96,10,2,10,0.00
2013-8-24,92,81,71,78,72,65,85,73,56,30.08,29.99,12,4,12,0.00
2013-8-25,94,81,70,79,72,65,86,74,53,30.16,30.06,12,4,12,0.00
2013-8-26,95,82,68,78,71,64,86,71,50,30.11,30.01,14,5,14,0.00
2013-8-27,95,81,70,73,68,64,85,66,42,30.03,29.94,16,5,16,0.00
2013-8-28,94,80,69,75,68,60,76,66,52,30.02,29.96,12,3,12,0.00
2013-8-29,95,82,73,78,69,63,72,65,52,29.99,29.90,9,3,9,0.00
2013-8-30,99,84,72,77,69,61,71,61,40,29.93,29.79,11,3,11,0.00
2013-8-31,93,81,72,77,69,62,71,66,53,29.85,29.76,10,2,10,0.03
2013-9-1,89,77,64,72,63,52,71,64,53,29.95,29.70,17,4,17,0.19
2013-9-2,83,71,59,64,56,47,68,61,48,30.04,29.94,13,3,13,0.00
2013-9-3,88,70,54,65,54,43,68,58,39,30.08,29.98,6,1,6,0.00
2013-9-4,92,72,56,68,56,44,67,57,38,30.14,30.01,9,1,9,0.00
2013-9-5,93,75,60,69,58,48,65,56,39,30.16,30.06,9,2,9,0.00
2013-9-6,94,79,67,71,62,53,63,56,46,30.09,29.93,13,3,13,0.00
2013-9-7,99,83,69,73,65,56,64,56,40,29.96,29.85,12,4,12,0.00
2013-9-8,102,86,70,73,66,57,65,54,33,29.87,29.78,12,4,12,0.00
2013-9-9,98,83,72,69,63,59,67,54,34,29.90,29.83,19,6,19,0.00
2013-9-10,98,81,66,71,63,55,68,56,37,30.03,29.90,14,5,14,0.00
2013-9-11,97,81,66,70,63,55,69,57,36,30.09,29.98,13,3,13,0.00
2013-9-12,86,76,67,68,61,52,68,60,47,30.13,30.03,17,4,17,0.03
2013-9-13,79,67,54,55,49,41,64,54,37,30.15,30.02,13,3,13,0.00
2013-9-14,84,67,50,58,50,38,65,55,37,30.06,29.89,11,4,11,0.00
2013-9-15,90,73,63,68,57,50,65,59,47,30.12,29.88,19,6,19,0.23
2013-9-16,63,61,60,50,47,42,64,60,51,30.21,30.09,13,6,13,0.69
2013-9-17,78,68,61,59,44,32,54,42,28,30.14,29.90,10,4,10,0.79
2013-9-18,90,77,66,72,49,9,62,42,8,29.93,29.75,20,6,20,0.00
2013-9-19,93,78,68,73,52,10,63,44,10,29.93,29.69,20,7,20,0.45
2013-9-20,73,64,52,52,47,28,66,54,25,30.05,29.91,16,4,16,0.00
2013-9-21,78,62,48,59,43,19,64,50,30,30.01,29.86,8,2,8,0.00
2013-9-22,78,64,53,60,46,24,65,52,33,29.93,29.80,10,3,10,0.00
2013-9-23,79,65,54,58,47,30,64,52,40,29.86,29.71,17,5,17,0.00
2013-9-24,72,65,57,59,48,33,64,56,33,29.84,29.71,12,4,12,0.00
2013-9-25,81,67,52,64,37,-1,61,37,1,29.87,29.75,8,2,8,0.00
2013-9-26,88,73,60,64,44,11,59,39,15,29.84,29.76,17,5,17,0.00
2013-9-27,88,75,65,67,55,36,61,50,34,29.91,29.79,17,6,17,0.00
2013-9-28,73,64,48,58,36,-4,61,39,1,30.06,29.74,17,4,17,0.22
2013-9-29,75,58,42,54,28,-10,58,35,1,30.07,29.91,6,2,8,0.00
2013-9-30,79,60,42,57,28,-21,57,32,1,29.91,29.77,13,3,13,0.00
2013-10-1,84,67,52,64,26,-3,53,23,1,29.92,29.80,12,3,12,0.00
2013-10-2,84,69,56,63,20,0,49,12,1,29.96,29.83,10,3,10,0.00
2013-10-3,85,72,63,62,19,5,46,9,1,29.85,29.68,22,6,22,0.10
2013-10-4,89,75,61,69,30,6,55,20,1,29.92,29.67,20,8,20,0.24
2013-10-5,72,54,46,52,37,28,60,54,44,30.01,29.88,15,6,15,0.00
2013-10-6,64,52,42,46,31,-17,60,46,1,29.99,29.84,17,6,17,0.00
2013-10-7,75,56,40,49,31,-27,58,40,4,30.11,29.98,8,2,8,0.00
2013-10-8,76,60,46,51,27,-8,55,32,1,30.04,29.95,17,5,17,0.00
2013-10-9,78,62,47,55,29,-7,56,32,1,30.03,29.94,13,4,13,0.00
2013-10-10,80,64,48,60,28,-6,57,29,1,30.01,29.80,14,4,14,0.00
2013-10-11,80,67,58,61,23,-23,55,18,1,29.85,29.70,16,7,17,0.00
2013-10-12,70,58,43,46,30,-17,57,38,1,30.21,29.85,14,3,14,0.00
2013-10-13,72,55,37,44,23,-40,57,31,1,30.34,30.21,18,4,18,0.00
2013-10-14,70,59,53,53,25,2,58,32,1,30.22,29.78,14,6,14,0.43
2013-10-15,61,54,46,43,27,-1,60,40,1,30.06,29.83,16,7,17,0.05
2013-10-16,60,51,42,42,33,-2,60,51,17,30.08,29.95,14,4,14,0.00
2013-10-17,68,52,35,48,24,-38,59,37,1,30.00,29.87,13,4,13,0.00
2013-10-18,46,39,32,22,-10,-18,42,6,1,30.11,30.00,10,2,10,0.27
2013-10-19,64,46,30,42,10,-20,60,24,1,30.06,29.84,13,3,13,0.01
2013-10-20,72,55,42,48,24,-11,59,33,1,29.92,29.74,13,4,13,0.00
2013-10-21,58,48,40,41,30,4,61,50,22,30.09,29.91,15,4,15,0.00
2013-10-22,62,51,39,45,26,-35,60,42,1,30.08,29.88,17,6,17,0.00
2013-10-23,56,44,29,41,11,-21,59,30,1,30.13,29.98,8,2,8,0.00
2013-10-24,53,42,29,32,12,-27,61,33,1,30.38,30.12,13,3,13,0.00
2013-10-25,59,42,24,35,14,-24,61,34,1,30.40,30.09,14,4,14,0.00
2013-10-26,61,49,36,41,20,-12,62,35,1,30.14,30.03,14,4,14,0.00
2013-10-27,66,45,25,39,17,-44,60,35,1,30.13,29.88,12,4,12,0.00
2013-10-28,61,48,34,33,7,-24,60,19,1,30.09,29.92,9,3,9,0.00
2013-10-29,65,59,54,7,3,-2,1,1,1,30.04,29.86,11,4,11,0.60
2013-10-30,72,63,55,13,6,0,1,1,1,29.92,29.67,15,4,15,1.03
2013-10-31,60,52,42,10,-3,-10,15,2,1,29.71,29.54,13,4,13,0.54
2013-11-1,76,50,40,42,8,-32,54,18,1,29.99,29.63,16,5,16,0.09
2013-11-2,57,45,34,36,2,-17,48,15,1,30.18,29.99,13,5,13,0.00
2013-11-3,59,49,34,39,13,-17,47,24,1,30.11,29.80,20,8,20,0.00
2013-11-4,65,56,49,28,2,-6,25,4,1,30.03,29.79,17,7,17,0.00
2013-11-5,60,56,43,3,0,-10,1,1,1,30.03,29.80,18,6,18,0.73
2013-11-6,46,39,31,-7,-13,-19,7,1,1,30.28,29.94,18,5,18,0.00
2013-11-7,78,42,31,50,0,-20,44,14,1,30.37,30.26,13,3,13,0.01
2013-11-8,68,51,30,38,15,-20,44,23,1,30.26,29.80,27,9,27,0.00
2013-11-9,69,52,35,40,16,-17,44,24,1,30.25,29.92,11,3,12,0.00
2013-11-10,59,50,33,36,14,-18,42,24,1,30.36,30.15,11,3,11,0.00
2013-11-11,59,45,28,4,-7,-22,35,4,1,30.61,30.10,29,8,29,0.00
2013-11-12,38,26,16,14,-3,-31,47,29,1,30.81,30.60,21,4,21,0.00
2013-11-13,51,35,18,23,5,-30,47,30,1,30.60,30.09,18,8,18,0.00
2013-11-14,60,46,38,32,22,7,47,39,25,30.10,29.88,17,9,17,0.00
2013-11-15,62,50,35,37,8,-17,40,17,1,29.91,29.65,14,6,14,0.00
2013-11-16,74,64,52,43,8,-3,34,3,1,29.65,29.34,32,13,32,0.01
2013-11-17,66,58,44,37,18,-28,42,21,1,30.06,29.30,27,12,27,0.00
2013-11-18,62,45,31,33,8,-19,44,22,1,30.25,30.04,7,2,7,0.00
2013-11-19,64,50,35,30,16,-17,41,27,1,30.18,29.88,18,8,18,0.00
2013-11-20,57,49,41,31,7,-11,43,17,1,29.90,29.78,17,6,17,0.23
2013-11-21,49,39,27,-5,-13,-22,1,1,1,30.42,29.89,24,8,24,0.05
2013-11-22,28,25,22,-22,-24,-26,1,1,1,30.58,30.40,19,7,19,0.01
2013-11-23,30,24,16,9,-14,-31,43,17,1,30.73,30.53,24,7,24,0.00
2013-11-24,29,22,12,8,-12,-34,41,22,1,30.68,30.25,11,4,11,0.00
2013-11-25,44,33,26,21,2,-24,40,28,1,30.25,30.11,13,4,13,0.00
2013-11-26,41,30,20,18,-6,-24,44,21,1,30.37,30.12,27,7,27,0.00
2013-11-27,39,26,14,14,-4,-33,44,28,1,30.38,30.09,14,4,14,0.00
2013-11-28,44,32,23,21,-1,-26,41,25,1,30.42,30.08,13,4,13,0.00
2013-11-29,56,36,20,30,0,-28,42,20,1,30.42,30.15,13,4,13,0.00
2013-11-30,58,42,30,32,-3,-20,37,11,1,30.15,30.02,10,3,10,0.00
2013-12-1,59,41,26,33,-5,-23,37,9,1,30.07,29.81,5,1,6,0.00
2013-12-2,59,45,36,2,-8,-16,10,1,1,29.81,29.55,13,6,13,0.00
2013-12-3,62,47,40,21,-6,-12,21,3,1,29.57,29.48,13,5,13,0.00
2013-12-4,40,32,22,-3,-17,-24,31,4,1,30.03,29.49,19,8,19,0.04
2013-12-5,22,19,16,0,-8,-28,41,31,1,30.34,30.02,16,8,16,0.00
2013-12-6,19,15,10,0,-4,-9,47,44,40,30.59,30.31,22,10,22,0.00
2013-12-7,23,14,3,3,-7,-34,45,38,16,30.65,30.28,14,7,14,0.00
2013-12-8,23,20,13,2,-24,-33,45,7,1,30.28,29.92,14,4,14,0.00
2013-12-9,20,11,6,0,-24,-39,41,17,1,30.36,30.13,10,4,12,0.00
2013-12-10,43,24,7,19,-12,-38,41,18,1,30.27,30.11,9,4,9,0.04
2013-12-11,29,21,9,7,-12,-30,46,23,1,30.56,30.16,24,6,24,0.00
2013-12-12,49,29,10,23,-3,-35,42,25,1,30.52,30.08,19,6,19,0.00
2013-12-13,39,35,27,-13,-16,-23,1,1,1,30.08,29.78,15,6,15,0.04
2013-12-14,34,26,15,-8,-23,-32,17,2,1,30.18,29.88,19,6,19,0.03
2013-12-15,56,34,14,30,-3,-33,39,18,1,30.16,29.93,11,4,11,0.00
2013-12-16,64,43,26,33,6,-23,40,21,1,30.11,29.92,16,3,16,0.00
2013-12-17,53,34,21,26,-5,-27,41,16,1,30.27,30.11,15,3,15,0.00
2013-12-18,68,48,26,36,10,-23,40,20,1,30.16,29.72,23,9,23,0.00
2013-12-19,58,50,36,9,-4,-16,18,2,1,29.72,29.59,15,6,15,0.00
2013-12-20,35,22,18,-16,-26,-29,1,1,1,29.93,29.70,24,6,24,0.00
2013-12-21,28,23,20,-22,-25,-28,1,1,1,29.87,29.59,19,6,19,0.00
2013-12-22,29,20,4,-21,-28,-64,1,1,1,30.32,29.72,12,4,12,0.00
2013-12-23,21,12,4,-2,-29,-65,38,11,1,30.56,30.31,9,3,9,0.02
2013-12-24,33,20,4,6,-26,-65,37,7,1,30.51,30.11,17,6,17,0.00
2013-12-25,44,31,20,10,-18,-28,25,3,1,30.30,30.18,11,3,11,0.18
2013-12-26,51,33,19,26,-10,-28,38,11,1,30.28,30.11,20,5,20,0.00
2013-12-27,60,38,21,32,-5,-27,40,12,1,30.28,30.12,10,3,10,0.00
2013-12-28,59,42,30,32,-2,-20,39,12,1,30.12,29.82,20,7,20,0.00
2013-12-29,37,19,9,4,-11,-30,47,27,1,30.29,29.94,24,8,24,0.00
2013-12-30,37,21,7,14,-6,-33,43,31,1,30.25,30.10,15,4,15,0.00
2013-12-31,55,35,15,28,-1,-32,42,20,1,30.27,29.97,24,6,24,0.00
2014-1-1,36,19,10,8,-27,-36,30,3,1,30.29,29.97,24,9,24,0.00
2014-1-2,20,11,2,-7,-27,-65,31,15,1,30.42,30.29,15,4,15,0.00